sensor_id;sensor_type;location;lat;lon;timestamp;pressure;altitude;pressure_sealevel;temperature
69186;BMP280;56298;49.246;9.410;2024-01-06T00:02:14;98215.81;;;4.10
69186;BMP280;56298;49.246;9.410;2024-01-06T00:04:39;98218.19;;;4.12
69186;BMP280;56298;49.246;9.410;2024-01-06T00:07:05;98221.16;;;4.19
69186;BMP280;56298;49.246;9.410;2024-01-06T00:09:30;98211.31;;;4.27
69186;BMP280;56298;49.246;9.410;2024-01-06T00:11:55;98220.56;;;4.26
69186;BMP280;56298;49.246;9.410;2024-01-06T00:14:20;98218.56;;;4.23
69186;BMP280;56298;49.246;9.410;2024-01-06T00:16:45;98225.78;;;4.31
69186;BMP280;56298;49.246;9.410;2024-01-06T00:19:11;98222.88;;;4.36
69186;BMP280;56298;49.246;9.410;2024-01-06T00:21:36;98214.84;;;4.40
69186;BMP280;56298;49.246;9.410;2024-01-06T00:24:01;98216.22;;;4.46
69186;BMP280;56298;49.246;9.410;2024-01-06T00:26:27;98217.56;;;4.52
69186;BMP280;56298;49.246;9.410;2024-01-06T00:28:52;98222.31;;;4.43
69186;BMP280;56298;49.246;9.410;2024-01-06T00:31:26;98222.16;;;4.27
69186;BMP280;56298;49.246;9.410;2024-01-06T00:33:51;98227.94;;;4.25
69186;BMP280;56298;49.246;9.410;2024-01-06T00:36:17;98221.38;;;4.26
69186;BMP280;56298;49.246;9.410;2024-01-06T00:38:42;98222.06;;;4.23
69186;BMP280;56298;49.246;9.410;2024-01-06T00:41:07;98224.88;;;4.15
69186;BMP280;56298;49.246;9.410;2024-01-06T00:43:33;98236.03;;;4.01
69186;BMP280;56298;49.246;9.410;2024-01-06T00:45:58;98228.56;;;4.10
69186;BMP280;56298;49.246;9.410;2024-01-06T00:48:23;98232.09;;;4.10
69186;BMP280;56298;49.246;9.410;2024-01-06T00:50:48;98235.78;;;4.06
69186;BMP280;56298;49.246;9.410;2024-01-06T00:53:14;98241.81;;;4.11
69186;BMP280;56298;49.246;9.410;2024-01-06T00:55:39;98253.19;;;4.05
69186;BMP280;56298;49.246;9.410;2024-01-06T00:58:04;98248.56;;;4.05
69186;BMP280;56298;49.246;9.410;2024-01-06T01:00:29;98246.22;;;3.82
69186;BMP280;56298;49.246;9.410;2024-01-06T01:02:55;98255.16;;;3.62
69186;BMP280;56298;49.246;9.410;2024-01-06T01:05:20;98256.41;;;3.43
69186;BMP280;56298;49.246;9.410;2024-01-06T01:07:45;98258.53;;;3.58
69186;BMP280;56298;49.246;9.410;2024-01-06T01:10:10;98261.56;;;3.57
69186;BMP280;56298;49.246;9.410;2024-01-06T01:12:36;98252.44;;;3.62
69186;BMP280;56298;49.246;9.410;2024-01-06T01:15:01;98268.59;;;3.79
69186;BMP280;56298;49.246;9.410;2024-01-06T01:17:27;98273.47;;;3.86
69186;BMP280;56298;49.246;9.410;2024-01-06T01:19:52;98289.31;;;3.96
69186;BMP280;56298;49.246;9.410;2024-01-06T01:22:17;98284.09;;;3.91
69186;BMP280;56298;49.246;9.410;2024-01-06T01:24:42;98285.03;;;3.95
69186;BMP280;56298;49.246;9.410;2024-01-06T01:27:08;98292.06;;;3.75
69186;BMP280;56298;49.246;9.410;2024-01-06T01:29:33;98288.16;;;3.64
69186;BMP280;56298;49.246;9.410;2024-01-06T01:32:00;98295.44;;;3.72
69186;BMP280;56298;49.246;9.410;2024-01-06T01:34:25;98299.50;;;3.57
69186;BMP280;56298;49.246;9.410;2024-01-06T01:36:50;98294.84;;;3.66
69186;BMP280;56298;49.246;9.410;2024-01-06T01:39:17;98302.16;;;3.66
69186;BMP280;56298;49.246;9.410;2024-01-06T01:41:42;98301.97;;;3.71
69186;BMP280;56298;49.246;9.410;2024-01-06T01:44:07;98304.63;;;3.80
69186;BMP280;56298;49.246;9.410;2024-01-06T01:46:32;98312.66;;;3.89
69186;BMP280;56298;49.246;9.410;2024-01-06T01:48:59;98308.78;;;3.98
69186;BMP280;56298;49.246;9.410;2024-01-06T01:51:30;98310.84;;;3.80
69186;BMP280;56298;49.246;9.410;2024-01-06T01:53:57;98305.66;;;3.66
69186;BMP280;56298;49.246;9.410;2024-01-06T01:56:23;98298.66;;;3.65
69186;BMP280;56298;49.246;9.410;2024-01-06T01:58:49;98301.63;;;3.72
69186;BMP280;56298;49.246;9.410;2024-01-06T02:01:15;98304.03;;;3.74
69186;BMP280;56298;49.246;9.410;2024-01-06T02:03:41;98306.59;;;3.70
69186;BMP280;56298;49.246;9.410;2024-01-06T02:06:09;98310.91;;;3.71
69186;BMP280;56298;49.246;9.410;2024-01-06T02:08:34;98310.06;;;3.80
69186;BMP280;56298;49.246;9.410;2024-01-06T02:10:59;98308.06;;;3.68
69186;BMP280;56298;49.246;9.410;2024-01-06T02:13:35;98304.88;;;3.87
69186;BMP280;56298;49.246;9.410;2024-01-06T02:16:05;98304.16;;;3.99
69186;BMP280;56298;49.246;9.410;2024-01-06T02:18:31;98303.50;;;4.02
69186;BMP280;56298;49.246;9.410;2024-01-06T02:20:58;98307.09;;;4.06
69186;BMP280;56298;49.246;9.410;2024-01-06T02:23:23;98311.94;;;4.01
69186;BMP280;56298;49.246;9.410;2024-01-06T02:25:49;98310.81;;;4.02
69186;BMP280;56298;49.246;9.410;2024-01-06T02:28:14;98308.31;;;3.96
69186;BMP280;56298;49.246;9.410;2024-01-06T02:30:39;98310.38;;;3.99
69186;BMP280;56298;49.246;9.410;2024-01-06T02:33:04;98316.44;;;3.96
69186;BMP280;56298;49.246;9.410;2024-01-06T02:35:29;98312.47;;;3.94
69186;BMP280;56298;49.246;9.410;2024-01-06T02:37:55;98313.47;;;3.89
69186;BMP280;56298;49.246;9.410;2024-01-06T02:40:20;98321.88;;;3.96
69186;BMP280;56298;49.246;9.410;2024-01-06T02:42:45;98323.66;;;3.92
69186;BMP280;56298;49.246;9.410;2024-01-06T02:45:10;98322.69;;;3.97
69186;BMP280;56298;49.246;9.410;2024-01-06T02:47:36;98317.06;;;3.81
69186;BMP280;56298;49.246;9.410;2024-01-06T02:50:01;98329.34;;;3.78
69186;BMP280;56298;49.246;9.410;2024-01-06T02:52:26;98336.88;;;3.72
69186;BMP280;56298;49.246;9.410;2024-01-06T02:54:52;98334.81;;;3.69
69186;BMP280;56298;49.246;9.410;2024-01-06T02:57:18;98337.06;;;3.67
69186;BMP280;56298;49.246;9.410;2024-01-06T02:59:43;98350.72;;;3.80
69186;BMP280;56298;49.246;9.410;2024-01-06T03:02:08;98349.13;;;3.79
69186;BMP280;56298;49.246;9.410;2024-01-06T03:04:33;98341.66;;;3.76
69186;BMP280;56298;49.246;9.410;2024-01-06T03:06:59;98344.94;;;3.81
69186;BMP280;56298;49.246;9.410;2024-01-06T03:09:24;98346.16;;;3.93
69186;BMP280;56298;49.246;9.410;2024-01-06T03:11:49;98349.19;;;3.91
69186;BMP280;56298;49.246;9.410;2024-01-06T03:14:14;98351.56;;;3.93
69186;BMP280;56298;49.246;9.410;2024-01-06T03:16:40;98352.88;;;3.87
69186;BMP280;56298;49.246;9.410;2024-01-06T03:19:05;98355.22;;;3.76
69186;BMP280;56298;49.246;9.410;2024-01-06T03:21:31;98353.00;;;3.69
69186;BMP280;56298;49.246;9.410;2024-01-06T03:23:56;98348.41;;;3.61
69186;BMP280;56298;49.246;9.410;2024-01-06T03:26:21;98345.63;;;3.48
69186;BMP280;56298;49.246;9.410;2024-01-06T03:28:49;98344.72;;;3.35
69186;BMP280;56298;49.246;9.410;2024-01-06T03:31:14;98355.38;;;3.40
69186;BMP280;56298;49.246;9.410;2024-01-06T03:33:40;98353.38;;;3.28
69186;BMP280;56298;49.246;9.410;2024-01-06T03:36:05;98359.72;;;3.32
69186;BMP280;56298;49.246;9.410;2024-01-06T03:38:31;98361.84;;;3.27
69186;BMP280;56298;49.246;9.410;2024-01-06T03:40:56;98360.53;;;3.33
69186;BMP280;56298;49.246;9.410;2024-01-06T03:43:21;98360.22;;;3.35
69186;BMP280;56298;49.246;9.410;2024-01-06T03:45:47;98353.34;;;3.37
69186;BMP280;56298;49.246;9.410;2024-01-06T03:48:13;98365.59;;;3.43
69186;BMP280;56298;49.246;9.410;2024-01-06T03:50:38;98359.84;;;3.45
69186;BMP280;56298;49.246;9.410;2024-01-06T03:53:03;98352.47;;;3.54
69186;BMP280;56298;49.246;9.410;2024-01-06T03:55:29;98351.41;;;3.47
69186;BMP280;56298;49.246;9.410;2024-01-06T03:57:54;98351.84;;;3.49
69186;BMP280;56298;49.246;9.410;2024-01-06T04:00:20;98356.47;;;3.48
69186;BMP280;56298;49.246;9.410;2024-01-06T04:02:45;98350.53;;;3.55
69186;BMP280;56298;49.246;9.410;2024-01-06T04:05:10;98357.09;;;3.54
69186;BMP280;56298;49.246;9.410;2024-01-06T04:07:35;98356.56;;;3.61
69186;BMP280;56298;49.246;9.410;2024-01-06T04:10:01;98354.97;;;3.59
69186;BMP280;56298;49.246;9.410;2024-01-06T04:12:26;98360.38;;;3.59
69186;BMP280;56298;49.246;9.410;2024-01-06T04:14:51;98366.25;;;3.62
69186;BMP280;56298;49.246;9.410;2024-01-06T04:17:16;98364.59;;;3.78
69186;BMP280;56298;49.246;9.410;2024-01-06T04:19:42;98365.97;;;3.84
69186;BMP280;56298;49.246;9.410;2024-01-06T04:22:07;98368.22;;;3.82
69186;BMP280;56298;49.246;9.410;2024-01-06T04:24:32;98373.06;;;3.98
69186;BMP280;56298;49.246;9.410;2024-01-06T04:27:02;98367.19;;;3.96
69186;BMP280;56298;49.246;9.410;2024-01-06T04:29:27;98364.47;;;3.96
69186;BMP280;56298;49.246;9.410;2024-01-06T04:31:52;98361.16;;;3.90
69186;BMP280;56298;49.246;9.410;2024-01-06T04:34:21;98360.03;;;3.91
69186;BMP280;56298;49.246;9.410;2024-01-06T04:36:46;98359.38;;;3.94
69186;BMP280;56298;49.246;9.410;2024-01-06T04:39:11;98355.34;;;4.01
69186;BMP280;56298;49.246;9.410;2024-01-06T04:41:39;98365.75;;;3.98
69186;BMP280;56298;49.246;9.410;2024-01-06T04:44:04;98358.13;;;3.92
69186;BMP280;56298;49.246;9.410;2024-01-06T04:46:29;98355.09;;;3.93
69186;BMP280;56298;49.246;9.410;2024-01-06T04:48:55;98366.63;;;3.81
69186;BMP280;56298;49.246;9.410;2024-01-06T04:51:21;98364.38;;;3.83
69186;BMP280;56298;49.246;9.410;2024-01-06T04:53:46;98363.56;;;3.83
69186;BMP280;56298;49.246;9.410;2024-01-06T04:56:12;98365.97;;;3.84
69186;BMP280;56298;49.246;9.410;2024-01-06T04:58:37;98374.19;;;3.76
69186;BMP280;56298;49.246;9.410;2024-01-06T05:01:02;98370.94;;;3.82
69186;BMP280;56298;49.246;9.410;2024-01-06T05:03:28;98362.66;;;3.79
69186;BMP280;56298;49.246;9.410;2024-01-06T05:05:53;98371.50;;;3.67
69186;BMP280;56298;49.246;9.410;2024-01-06T05:08:18;98367.22;;;3.66
69186;BMP280;56298;49.246;9.410;2024-01-06T05:10:44;98372.91;;;3.73
69186;BMP280;56298;49.246;9.410;2024-01-06T05:13:09;98370.41;;;3.68
69186;BMP280;56298;49.246;9.410;2024-01-06T05:15:35;98379.03;;;3.61
69186;BMP280;56298;49.246;9.410;2024-01-06T05:18:00;98377.22;;;3.74
69186;BMP280;56298;49.246;9.410;2024-01-06T05:20:25;98382.97;;;3.72
69186;BMP280;56298;49.246;9.410;2024-01-06T05:22:50;98391.38;;;3.80
69186;BMP280;56298;49.246;9.410;2024-01-06T05:25:15;98396.00;;;3.79
69186;BMP280;56298;49.246;9.410;2024-01-06T05:27:41;98394.97;;;3.63
69186;BMP280;56298;49.246;9.410;2024-01-06T05:30:07;98393.47;;;3.74
69186;BMP280;56298;49.246;9.410;2024-01-06T05:32:33;98400.09;;;3.85
69186;BMP280;56298;49.246;9.410;2024-01-06T05:34:58;98410.09;;;3.94
69186;BMP280;56298;49.246;9.410;2024-01-06T05:37:25;98403.63;;;4.07
69186;BMP280;56298;49.246;9.410;2024-01-06T05:39:50;98403.09;;;3.93
69186;BMP280;56298;49.246;9.410;2024-01-06T05:42:15;98405.81;;;3.93
69186;BMP280;56298;49.246;9.410;2024-01-06T05:44:40;98405.53;;;4.07
69186;BMP280;56298;49.246;9.410;2024-01-06T05:47:06;98409.25;;;4.02
69186;BMP280;56298;49.246;9.410;2024-01-06T05:49:33;98412.44;;;4.04
69186;BMP280;56298;49.246;9.410;2024-01-06T05:51:58;98417.47;;;4.15
69186;BMP280;56298;49.246;9.410;2024-01-06T05:54:23;98415.00;;;4.22
69186;BMP280;56298;49.246;9.410;2024-01-06T05:56:49;98420.31;;;4.18
69186;BMP280;56298;49.246;9.410;2024-01-06T05:59:14;98412.88;;;4.06
69186;BMP280;56298;49.246;9.410;2024-01-06T06:01:39;98416.28;;;4.03
69186;BMP280;56298;49.246;9.410;2024-01-06T06:04:05;98416.28;;;4.03
69186;BMP280;56298;49.246;9.410;2024-01-06T06:06:30;98424.59;;;3.98
69186;BMP280;56298;49.246;9.410;2024-01-06T06:08:55;98430.06;;;3.89
69186;BMP280;56298;49.246;9.410;2024-01-06T06:11:21;98427.13;;;4.03
69186;BMP280;56298;49.246;9.410;2024-01-06T06:13:46;98431.28;;;4.22
69186;BMP280;56298;49.246;9.410;2024-01-06T06:16:12;98434.91;;;4.26
69186;BMP280;56298;49.246;9.410;2024-01-06T06:18:37;98435.84;;;4.30
69186;BMP280;56298;49.246;9.410;2024-01-06T06:21:03;98440.06;;;4.40
69186;BMP280;56298;49.246;9.410;2024-01-06T06:23:30;98450.88;;;4.28
69186;BMP280;56298;49.246;9.410;2024-01-06T06:25:55;98452.38;;;4.16
69186;BMP280;56298;49.246;9.410;2024-01-06T06:28:20;98449.72;;;4.07
69186;BMP280;56298;49.246;9.410;2024-01-06T06:30:46;98447.63;;;4.13
69186;BMP280;56298;49.246;9.410;2024-01-06T06:33:11;98442.53;;;4.11
69186;BMP280;56298;49.246;9.410;2024-01-06T06:35:36;98452.53;;;4.20
69186;BMP280;56298;49.246;9.410;2024-01-06T06:38:02;98452.78;;;4.27
69186;BMP280;56298;49.246;9.410;2024-01-06T06:40:27;98450.94;;;4.19
69186;BMP280;56298;49.246;9.410;2024-01-06T06:42:53;98454.13;;;4.21
69186;BMP280;56298;49.246;9.410;2024-01-06T06:45:19;98461.78;;;4.40
69186;BMP280;56298;49.246;9.410;2024-01-06T06:47:47;98463.31;;;4.50
69186;BMP280;56298;49.246;9.410;2024-01-06T06:50:12;98466.63;;;4.56
69186;BMP280;56298;49.246;9.410;2024-01-06T06:52:38;98476.81;;;4.59
69186;BMP280;56298;49.246;9.410;2024-01-06T06:55:03;98479.34;;;4.64
69186;BMP280;56298;49.246;9.410;2024-01-06T06:57:28;98488.19;;;4.73
69186;BMP280;56298;49.246;9.410;2024-01-06T06:59:54;98486.22;;;4.83
69186;BMP280;56298;49.246;9.410;2024-01-06T07:02:19;98501.81;;;4.86
69186;BMP280;56298;49.246;9.410;2024-01-06T07:04:44;98499.22;;;4.89
69186;BMP280;56298;49.246;9.410;2024-01-06T07:07:10;98499.72;;;4.70
69186;BMP280;56298;49.246;9.410;2024-01-06T07:09:35;98507.59;;;4.63
69186;BMP280;56298;49.246;9.410;2024-01-06T07:12:00;98495.88;;;4.50
69186;BMP280;56298;49.246;9.410;2024-01-06T07:14:25;98498.34;;;4.64
69186;BMP280;56298;49.246;9.410;2024-01-06T07:16:51;98500.03;;;4.69
69186;BMP280;56298;49.246;9.410;2024-01-06T07:19:16;98504.66;;;4.68
69186;BMP280;56298;49.246;9.410;2024-01-06T07:21:41;98510.81;;;4.77
69186;BMP280;56298;49.246;9.410;2024-01-06T07:24:07;98509.53;;;4.84
69186;BMP280;56298;49.246;9.410;2024-01-06T07:26:32;98512.09;;;4.80
69186;BMP280;56298;49.246;9.410;2024-01-06T07:28:57;98523.22;;;4.87
69186;BMP280;56298;49.246;9.410;2024-01-06T07:31:22;98522.88;;;4.89
69186;BMP280;56298;49.246;9.410;2024-01-06T07:33:48;98526.00;;;5.00
69186;BMP280;56298;49.246;9.410;2024-01-06T07:36:13;98524.06;;;5.00
69186;BMP280;56298;49.246;9.410;2024-01-06T07:38:40;98530.88;;;5.06
69186;BMP280;56298;49.246;9.410;2024-01-06T07:41:06;98533.84;;;5.14
69186;BMP280;56298;49.246;9.410;2024-01-06T07:43:32;98537.09;;;5.07
69186;BMP280;56298;49.246;9.410;2024-01-06T07:45:57;98541.25;;;5.04
69186;BMP280;56298;49.246;9.410;2024-01-06T07:48:22;98537.09;;;5.07
69186;BMP280;56298;49.246;9.410;2024-01-06T07:50:47;98536.22;;;5.15
69186;BMP280;56298;49.246;9.410;2024-01-06T07:53:13;98543.00;;;5.21
69186;BMP280;56298;49.246;9.410;2024-01-06T07:55:42;98547.00;;;5.24
69186;BMP280;56298;49.246;9.410;2024-01-06T07:58:07;98542.47;;;5.16
69186;BMP280;56298;49.246;9.410;2024-01-06T08:00:32;98552.84;;;5.14
69186;BMP280;56298;49.246;9.410;2024-01-06T08:02:58;98562.84;;;5.22
69186;BMP280;56298;49.246;9.410;2024-01-06T08:05:23;98552.53;;;5.15
69186;BMP280;56298;49.246;9.410;2024-01-06T08:07:50;98549.97;;;4.98
69186;BMP280;56298;49.246;9.410;2024-01-06T08:10:16;98551.72;;;4.81
69186;BMP280;56298;49.246;9.410;2024-01-06T08:12:41;98551.44;;;4.95
69186;BMP280;56298;49.246;9.410;2024-01-06T08:15:07;98549.97;;;4.98
69186;BMP280;56298;49.246;9.410;2024-01-06T08:17:34;98551.97;;;5.22
69186;BMP280;56298;49.246;9.410;2024-01-06T08:20:00;98550.06;;;5.23
69186;BMP280;56298;49.246;9.410;2024-01-06T08:22:25;98546.00;;;5.29
69186;BMP280;56298;49.246;9.410;2024-01-06T08:24:50;98558.38;;;5.39
69186;BMP280;56298;49.246;9.410;2024-01-06T08:27:15;98559.97;;;5.40
69186;BMP280;56298;49.246;9.410;2024-01-06T08:29:41;98553.19;;;5.46
69186;BMP280;56298;49.246;9.410;2024-01-06T08:32:06;98568.34;;;5.47
69186;BMP280;56298;49.246;9.410;2024-01-06T08:34:32;98565.75;;;5.51
69186;BMP280;56298;49.246;9.410;2024-01-06T08:36:57;98570.09;;;5.52
69186;BMP280;56298;49.246;9.410;2024-01-06T08:39:22;98571.53;;;5.37
69186;BMP280;56298;49.246;9.410;2024-01-06T08:41:49;98567.09;;;5.44
69186;BMP280;56298;49.246;9.410;2024-01-06T08:44:15;98573.66;;;5.43
69186;BMP280;56298;49.246;9.410;2024-01-06T08:46:40;98575.91;;;5.41
69186;BMP280;56298;49.246;9.410;2024-01-06T08:49:05;98576.50;;;5.34
69186;BMP280;56298;49.246;9.410;2024-01-06T08:51:30;98577.75;;;5.50
69186;BMP280;56298;49.246;9.410;2024-01-06T08:53:56;98581.41;;;5.54
69186;BMP280;56298;49.246;9.410;2024-01-06T08:56:21;98583.13;;;5.58
69186;BMP280;56298;49.246;9.410;2024-01-06T08:58:47;98583.59;;;5.73
69186;BMP280;56298;49.246;9.410;2024-01-06T09:01:12;98581.59;;;5.82
69186;BMP280;56298;49.246;9.410;2024-01-06T09:03:38;98586.69;;;5.96
69186;BMP280;56298;49.246;9.410;2024-01-06T09:06:04;98595.50;;;6.06
69186;BMP280;56298;49.246;9.410;2024-01-06T09:08:29;98592.25;;;6.12
69186;BMP280;56298;49.246;9.410;2024-01-06T09:10:55;98592.81;;;6.18
69186;BMP280;56298;49.246;9.410;2024-01-06T09:13:23;98583.81;;;6.18
69186;BMP280;56298;49.246;9.410;2024-01-06T09:15:52;98588.03;;;5.90
69186;BMP280;56298;49.246;9.410;2024-01-06T09:18:18;98589.16;;;5.89
69186;BMP280;56298;49.246;9.410;2024-01-06T09:20:43;98581.44;;;5.91
69186;BMP280;56298;49.246;9.410;2024-01-06T09:23:09;98592.44;;;5.95
69186;BMP280;56298;49.246;9.410;2024-01-06T09:25:35;98589.19;;;6.01
69186;BMP280;56298;49.246;9.410;2024-01-06T09:28:00;98587.59;;;6.13
69186;BMP280;56298;49.246;9.410;2024-01-06T09:30:26;98595.97;;;6.20
69186;BMP280;56298;49.246;9.410;2024-01-06T09:32:51;98600.59;;;6.32
69186;BMP280;56298;49.246;9.410;2024-01-06T09:35:16;98606.28;;;6.39
69186;BMP280;56298;49.246;9.410;2024-01-06T09:37:41;98606.97;;;6.36
69186;BMP280;56298;49.246;9.410;2024-01-06T09:40:11;98604.34;;;6.52
69186;BMP280;56298;49.246;9.410;2024-01-06T09:42:38;98600.94;;;6.55
69186;BMP280;56298;49.246;9.410;2024-01-06T09:45:04;98603.44;;;6.48
69186;BMP280;56298;49.246;9.410;2024-01-06T09:47:34;98610.38;;;6.58
69186;BMP280;56298;49.246;9.410;2024-01-06T09:50:01;98610.94;;;6.51
69186;BMP280;56298;49.246;9.410;2024-01-06T09:52:28;98612.06;;;6.50
69186;BMP280;56298;49.246;9.410;2024-01-06T09:54:55;98627.59;;;6.50
69186;BMP280;56298;49.246;9.410;2024-01-06T09:57:23;98615.78;;;6.46
69186;BMP280;56298;49.246;9.410;2024-01-06T09:59:48;98618.50;;;6.46
69186;BMP280;56298;49.246;9.410;2024-01-06T10:02:14;98621.34;;;6.49
69186;BMP280;56298;49.246;9.410;2024-01-06T10:04:40;98622.81;;;6.47
69186;BMP280;56298;49.246;9.410;2024-01-06T10:07:06;98619.56;;;6.41
69186;BMP280;56298;49.246;9.410;2024-01-06T10:09:31;98627.75;;;6.41
69186;BMP280;56298;49.246;9.410;2024-01-06T10:11:57;98629.00;;;6.43
69186;BMP280;56298;49.246;9.410;2024-01-06T10:14:24;98629.88;;;6.35
69186;BMP280;56298;49.246;9.410;2024-01-06T10:16:50;98626.72;;;6.33
69186;BMP280;56298;49.246;9.410;2024-01-06T10:19:16;98632.75;;;6.26
69186;BMP280;56298;49.246;9.410;2024-01-06T10:21:41;98628.53;;;6.41
69186;BMP280;56298;49.246;9.410;2024-01-06T10:24:10;98626.59;;;6.54
69186;BMP280;56298;49.246;9.410;2024-01-06T10:26:35;98630.56;;;6.45
69186;BMP280;56298;49.246;9.410;2024-01-06T10:29:00;98633.72;;;6.47
69186;BMP280;56298;49.246;9.410;2024-01-06T10:31:26;98631.25;;;6.54
69186;BMP280;56298;49.246;9.410;2024-01-06T10:33:51;98633.25;;;6.69
69186;BMP280;56298;49.246;9.410;2024-01-06T10:36:17;98626.22;;;6.81
69186;BMP280;56298;49.246;9.410;2024-01-06T10:38:44;98629.22;;;6.92
69186;BMP280;56298;49.246;9.410;2024-01-06T10:41:11;98627.59;;;7.03
69186;BMP280;56298;49.246;9.410;2024-01-06T10:43:37;98637.31;;;7.17
69186;BMP280;56298;49.246;9.410;2024-01-06T10:46:06;98630.13;;;6.96
69186;BMP280;56298;49.246;9.410;2024-01-06T10:48:35;98636.03;;;6.98
69186;BMP280;56298;49.246;9.410;2024-01-06T10:51:01;98637.84;;;7.06
69186;BMP280;56298;49.246;9.410;2024-01-06T10:53:33;98638.28;;;7.08
69186;BMP280;56298;49.246;9.410;2024-01-06T10:56:01;98636.38;;;6.96
69186;BMP280;56298;49.246;9.410;2024-01-06T10:58:27;98631.91;;;7.04
69186;BMP280;56298;49.246;9.410;2024-01-06T11:00:52;98632.59;;;7.01
69186;BMP280;56298;49.246;9.410;2024-01-06T11:03:18;98643.97;;;6.91
69186;BMP280;56298;49.246;9.410;2024-01-06T11:05:44;98636.50;;;6.88
69186;BMP280;56298;49.246;9.410;2024-01-06T11:08:10;98632.91;;;6.83
69186;BMP280;56298;49.246;9.410;2024-01-06T11:10:37;98632.75;;;6.92
69186;BMP280;56298;49.246;9.410;2024-01-06T11:13:14;98630.63;;;6.86
69186;BMP280;56298;49.246;9.410;2024-01-06T11:15:47;98628.88;;;6.93
69186;BMP280;56298;49.246;9.410;2024-01-06T11:18:32;98628.88;;;6.93
69186;BMP280;56298;49.246;9.410;2024-01-06T11:23:42;98624.47;;;6.89
69186;BMP280;56298;49.246;9.410;2024-01-06T11:26:07;98621.34;;;7.03
69186;BMP280;56298;49.246;9.410;2024-01-06T11:28:46;98617.34;;;7.13
69186;BMP280;56298;49.246;9.410;2024-01-06T11:31:11;98621.59;;;7.26
69186;BMP280;56298;49.246;9.410;2024-01-06T11:33:44;98617.69;;;7.39
69186;BMP280;56298;49.246;9.410;2024-01-06T11:36:09;98618.22;;;7.45
69186;BMP280;56298;49.246;9.410;2024-01-06T11:38:39;98615.69;;;7.52
69186;BMP280;56298;49.246;9.410;2024-01-06T11:41:08;98611.81;;;7.53
69186;BMP280;56298;49.246;9.410;2024-01-06T11:43:34;98617.00;;;7.59
69186;BMP280;56298;49.246;9.410;2024-01-06T11:46:05;98612.44;;;7.63
69186;BMP280;56298;49.246;9.410;2024-01-06T11:48:32;98612.97;;;7.69
69186;BMP280;56298;49.246;9.410;2024-01-06T11:50:58;98610.34;;;7.72
69186;BMP280;56298;49.246;9.410;2024-01-06T11:53:26;98609.97;;;7.74
69186;BMP280;56298;49.246;9.410;2024-01-06T11:55:52;98606.03;;;7.87
69186;BMP280;56298;49.246;9.410;2024-01-06T11:58:17;98606.19;;;7.94
69186;BMP280;56298;49.246;9.410;2024-01-06T12:00:42;98604.88;;;8.04
69186;BMP280;56298;49.246;9.410;2024-01-06T12:03:08;98596.06;;;8.11
69186;BMP280;56298;49.246;9.410;2024-01-06T12:05:33;98594.38;;;8.06
69186;BMP280;56298;49.246;9.410;2024-01-06T12:08:00;98594.63;;;8.01
69186;BMP280;56298;49.246;9.410;2024-01-06T12:10:28;98598.09;;;8.14
69186;BMP280;56298;49.246;9.410;2024-01-06T12:12:59;98594.38;;;7.90
69186;BMP280;56298;49.246;9.410;2024-01-06T12:15:25;98589.19;;;8.01
69186;BMP280;56298;49.246;9.410;2024-01-06T12:17:50;98587.81;;;7.91
69186;BMP280;56298;49.246;9.410;2024-01-06T12:20:15;98590.78;;;7.86
69186;BMP280;56298;49.246;9.410;2024-01-06T12:22:41;98591.84;;;7.82
69186;BMP280;56298;49.246;9.410;2024-01-06T12:25:06;98589.28;;;7.89
69186;BMP280;56298;49.246;9.410;2024-01-06T12:27:32;98592.47;;;7.91
69186;BMP280;56298;49.246;9.410;2024-01-06T12:29:57;98595.53;;;7.57
69186;BMP280;56298;49.246;9.410;2024-01-06T12:32:23;98591.06;;;7.49
69186;BMP280;56298;49.246;9.410;2024-01-06T12:34:48;98596.63;;;7.40
69186;BMP280;56298;49.246;9.410;2024-01-06T12:37:14;98591.81;;;7.33
69186;BMP280;56298;49.246;9.410;2024-01-06T12:39:40;98587.69;;;7.39
69186;BMP280;56298;49.246;9.410;2024-01-06T12:42:07;98589.41;;;7.32
69186;BMP280;56298;49.246;9.410;2024-01-06T12:44:34;98586.81;;;7.35
69186;BMP280;56298;49.246;9.410;2024-01-06T12:47:02;98590.25;;;7.48
69186;BMP280;56298;49.246;9.410;2024-01-06T12:49:28;98592.63;;;7.50
69186;BMP280;56298;49.246;9.410;2024-01-06T12:51:54;98593.13;;;7.39
69186;BMP280;56298;49.246;9.410;2024-01-06T12:54:19;98588.94;;;7.58
69186;BMP280;56298;49.246;9.410;2024-01-06T12:56:45;98587.81;;;7.59
69186;BMP280;56298;49.246;9.410;2024-01-06T12:59:10;98582.16;;;7.68
69186;BMP280;56298;49.246;9.410;2024-01-06T13:01:36;98582.84;;;7.81
69186;BMP280;56298;49.246;9.410;2024-01-06T13:04:02;98573.22;;;7.84
69186;BMP280;56298;49.246;9.410;2024-01-06T13:06:27;98589.19;;;7.85
69186;BMP280;56298;49.246;9.410;2024-01-06T13:08:53;98588.03;;;8.02
69186;BMP280;56298;49.246;9.410;2024-01-06T13:11:19;98584.31;;;8.11
69186;BMP280;56298;49.246;9.410;2024-01-06T13:13:44;98591.47;;;8.15
69186;BMP280;56298;49.246;9.410;2024-01-06T13:16:10;98589.09;;;8.14
69186;BMP280;56298;49.246;9.410;2024-01-06T13:18:35;98588.19;;;8.26
69186;BMP280;56298;49.246;9.410;2024-01-06T13:21:00;98595.06;;;8.19
69186;BMP280;56298;49.246;9.410;2024-01-06T13:23:26;98590.13;;;8.09
69186;BMP280;56298;49.246;9.410;2024-01-06T13:25:52;98589.34;;;8.08
69186;BMP280;56298;49.246;9.410;2024-01-06T13:28:17;98596.69;;;8.04
69186;BMP280;56298;49.246;9.410;2024-01-06T13:30:42;98591.34;;;8.12
69186;BMP280;56298;49.246;9.410;2024-01-06T13:33:08;98593.91;;;8.20
69186;BMP280;56298;49.246;9.410;2024-01-06T13:35:35;98596.66;;;8.20
69186;BMP280;56298;49.246;9.410;2024-01-06T13:38:02;98601.78;;;8.06
69186;BMP280;56298;49.246;9.410;2024-01-06T13:40:29;98599.22;;;7.97
69186;BMP280;56298;49.246;9.410;2024-01-06T13:42:54;98609.09;;;8.02
69186;BMP280;56298;49.246;9.410;2024-01-06T13:45:19;98609.72;;;7.95
69186;BMP280;56298;49.246;9.410;2024-01-06T13:47:45;98610.59;;;7.83
69186;BMP280;56298;49.246;9.410;2024-01-06T13:50:12;98609.81;;;7.83
69186;BMP280;56298;49.246;9.410;2024-01-06T13:52:38;98605.56;;;7.69
69186;BMP280;56298;49.246;9.410;2024-01-06T13:55:03;98612.19;;;7.68
69186;BMP280;56298;49.246;9.410;2024-01-06T13:57:29;98612.19;;;7.68
69186;BMP280;56298;49.246;9.410;2024-01-06T13:59:54;98617.47;;;7.61
69186;BMP280;56298;49.246;9.410;2024-01-06T14:02:19;98621.13;;;7.52
69186;BMP280;56298;49.246;9.410;2024-01-06T14:04:45;98627.78;;;7.68
69186;BMP280;56298;49.246;9.410;2024-01-06T14:07:10;98614.34;;;7.62
69186;BMP280;56298;49.246;9.410;2024-01-06T14:09:35;98620.53;;;7.75
69186;BMP280;56298;49.246;9.410;2024-01-06T14:12:01;98627.78;;;7.68
69186;BMP280;56298;49.246;9.410;2024-01-06T14:14:26;98630.22;;;7.57
69186;BMP280;56298;49.246;9.410;2024-01-06T14:16:51;98627.22;;;7.62